sensor_id;sensor_type;location;lat;lon;timestamp;temperature;humidity
11934;DHT22;6026;48.784;9.198;2022-07-01T00:01:38;14.80;99.90
11934;DHT22;6026;48.784;9.198;2022-07-01T00:04:06;14.80;99.90
11934;DHT22;6026;48.784;9.198;2022-07-01T00:06:32;14.80;99.90
11934;DHT22;6026;48.784;9.198;2022-07-01T00:08:58;14.70;99.90
11934;DHT22;6026;48.784;9.198;2022-07-01T00:11:23;14.70;99.90
11934;DHT22;6026;48.784;9.198;2022-07-01T00:13:49;14.60;99.90
11934;DHT22;6026;48.784;9.198;2022-07-01T00:16:14;14.50;99.90
11934;DHT22;6026;48.784;9.198;2022-07-01T00:18:40;14.50;99.90
11934;DHT22;6026;48.784;9.198;2022-07-01T00:21:06;14.40;99.90
11934;DHT22;6026;48.784;9.198;2022-07-01T00:23:31;14.40;99.90
11934;DHT22;6026;48.784;9.198;2022-07-01T00:25:58;14.40;99.90
11934;DHT22;6026;48.784;9.198;2022-07-01T00:28:23;14.40;99.90
11934;DHT22;6026;48.784;9.198;2022-07-01T00:30:49;14.20;99.90
11934;DHT22;6026;48.784;9.198;2022-07-01T00:33:15;14.20;99.90
11934;DHT22;6026;48.784;9.198;2022-07-01T00:35:41;14.10;99.90
11934;DHT22;6026;48.784;9.198;2022-07-01T00:38:06;14.10;99.90
11934;DHT22;6026;48.784;9.198;2022-07-01T00:40:32;14.10;99.90
11934;DHT22;6026;48.784;9.198;2022-07-01T00:42:57;14.10;99.90
11934;DHT22;6026;48.784;9.198;2022-07-01T00:45:29;14.00;99.90
11934;DHT22;6026;48.784;9.198;2022-07-01T00:47:55;14.10;99.90
11934;DHT22;6026;48.784;9.198;2022-07-01T00:50:20;14.10;99.90
11934;DHT22;6026;48.784;9.198;2022-07-01T00:52:46;14.10;99.90
11934;DHT22;6026;48.784;9.198;2022-07-01T00:55:13;14.10;99.90
11934;DHT22;6026;48.784;9.198;2022-07-01T00:57:41;14.10;99.90
11934;DHT22;6026;48.784;9.198;2022-07-01T01:00:12;14.10;99.90
11934;DHT22;6026;48.784;9.198;2022-07-01T01:02:39;14.00;99.90
11934;DHT22;6026;48.784;9.198;2022-07-01T01:05:05;13.90;99.90
11934;DHT22;6026;48.784;9.198;2022-07-01T01:07:32;14.00;99.90
11934;DHT22;6026;48.784;9.198;2022-07-01T01:10:02;14.00;99.90
11934;DHT22;6026;48.784;9.198;2022-07-01T01:12:28;13.90;99.90
11934;DHT22;6026;48.784;9.198;2022-07-01T01:14:55;13.90;99.90
11934;DHT22;6026;48.784;9.198;2022-07-01T01:17:21;14.00;99.90
11934;DHT22;6026;48.784;9.198;2022-07-01T01:19:48;14.00;99.90
11934;DHT22;6026;48.784;9.198;2022-07-01T01:22:14;14.00;99.90
11934;DHT22;6026;48.784;9.198;2022-07-01T01:24:42;14.10;99.90
11934;DHT22;6026;48.784;9.198;2022-07-01T01:27:08;14.10;99.90
11934;DHT22;6026;48.784;9.198;2022-07-01T01:29:36;14.10;99.90
11934;DHT22;6026;48.784;9.198;2022-07-01T01:32:03;14.00;99.90
11934;DHT22;6026;48.784;9.198;2022-07-01T01:34:29;14.00;99.90
11934;DHT22;6026;48.784;9.198;2022-07-01T01:36:55;14.00;99.90
11934;DHT22;6026;48.784;9.198;2022-07-01T01:39:20;13.90;99.90
11934;DHT22;6026;48.784;9.198;2022-07-01T01:41:47;14.00;99.90
11934;DHT22;6026;48.784;9.198;2022-07-01T01:44:13;14.00;99.90
11934;DHT22;6026;48.784;9.198;2022-07-01T01:46:39;14.00;99.90
11934;DHT22;6026;48.784;9.198;2022-07-01T01:49:05;14.00;99.90
11934;DHT22;6026;48.784;9.198;2022-07-01T01:51:31;14.00;99.90
11934;DHT22;6026;48.784;9.198;2022-07-01T01:53:57;13.90;99.90
11934;DHT22;6026;48.784;9.198;2022-07-01T01:56:23;14.00;99.90
11934;DHT22;6026;48.784;9.198;2022-07-01T01:58:49;13.90;99.90
11934;DHT22;6026;48.784;9.198;2022-07-01T02:01:16;13.90;99.90
11934;DHT22;6026;48.784;9.198;2022-07-01T02:03:43;13.80;99.90
11934;DHT22;6026;48.784;9.198;2022-07-01T02:06:09;13.80;99.90
11934;DHT22;6026;48.784;9.198;2022-07-01T02:08:36;13.80;99.90
11934;DHT22;6026;48.784;9.198;2022-07-01T02:11:01;13.80;99.90
11934;DHT22;6026;48.784;9.198;2022-07-01T02:13:28;13.80;99.90
11934;DHT22;6026;48.784;9.198;2022-07-01T02:15:54;13.80;99.90
11934;DHT22;6026;48.784;9.198;2022-07-01T02:18:20;13.80;99.90
11934;DHT22;6026;48.784;9.198;2022-07-01T02:20:45;13.80;99.90
11934;DHT22;6026;48.784;9.198;2022-07-01T02:23:11;13.80;99.90
11934;DHT22;6026;48.784;9.198;2022-07-01T02:25:37;13.90;99.90
11934;DHT22;6026;48.784;9.198;2022-07-01T02:28:03;13.80;99.90
11934;DHT22;6026;48.784;9.198;2022-07-01T02:30:29;13.80;99.90
11934;DHT22;6026;48.784;9.198;2022-07-01T02:32:56;13.80;99.90
11934;DHT22;6026;48.784;9.198;2022-07-01T02:35:22;13.80;99.90
11934;DHT22;6026;48.784;9.198;2022-07-01T02:37:48;13.80;99.90
11934;DHT22;6026;48.784;9.198;2022-07-01T02:40:13;13.80;99.90
11934;DHT22;6026;48.784;9.198;2022-07-01T02:42:40;13.80;99.90
11934;DHT22;6026;48.784;9.198;2022-07-01T02:45:07;13.80;99.90
11934;DHT22;6026;48.784;9.198;2022-07-01T02:47:34;13.70;99.90
11934;DHT22;6026;48.784;9.198;2022-07-01T02:49:59;13.80;99.90
11934;DHT22;6026;48.784;9.198;2022-07-01T02:52:26;13.70;99.90
11934;DHT22;6026;48.784;9.198;2022-07-01T02:54:52;13.70;99.90
11934;DHT22;6026;48.784;9.198;2022-07-01T02:57:18;13.70;99.90
11934;DHT22;6026;48.784;9.198;2022-07-01T02:59:44;13.60;99.90
11934;DHT22;6026;48.784;9.198;2022-07-01T03:02:09;13.60;99.90
11934;DHT22;6026;48.784;9.198;2022-07-01T03:04:35;13.70;99.90
11934;DHT22;6026;48.784;9.198;2022-07-01T03:07:00;13.70;99.90
11934;DHT22;6026;48.784;9.198;2022-07-01T03:09:26;13.70;99.90
11934;DHT22;6026;48.784;9.198;2022-07-01T03:11:52;13.70;99.90
11934;DHT22;6026;48.784;9.198;2022-07-01T03:14:17;13.70;99.90
11934;DHT22;6026;48.784;9.198;2022-07-01T03:16:43;13.70;99.90
11934;DHT22;6026;48.784;9.198;2022-07-01T03:19:09;13.70;99.90
11934;DHT22;6026;48.784;9.198;2022-07-01T03:21:34;13.70;99.90
11934;DHT22;6026;48.784;9.198;2022-07-01T03:24:00;13.70;99.90
11934;DHT22;6026;48.784;9.198;2022-07-01T03:26:26;13.70;99.90
11934;DHT22;6026;48.784;9.198;2022-07-01T03:28:51;13.70;99.90
11934;DHT22;6026;48.784;9.198;2022-07-01T03:31:17;13.70;99.90
11934;DHT22;6026;48.784;9.198;2022-07-01T03:33:42;13.60;99.90
11934;DHT22;6026;48.784;9.198;2022-07-01T03:36:08;13.70;99.90
11934;DHT22;6026;48.784;9.198;2022-07-01T03:38:34;13.70;99.90
11934;DHT22;6026;48.784;9.198;2022-07-01T03:41:00;13.60;99.90
11934;DHT22;6026;48.784;9.198;2022-07-01T03:43:25;13.70;99.90
11934;DHT22;6026;48.784;9.198;2022-07-01T03:45:51;13.70;99.90
11934;DHT22;6026;48.784;9.198;2022-07-01T03:48:17;13.60;99.90
11934;DHT22;6026;48.784;9.198;2022-07-01T03:50:42;13.70;99.90
11934;DHT22;6026;48.784;9.198;2022-07-01T03:53:08;13.70;99.90
11934;DHT22;6026;48.784;9.198;2022-07-01T03:55:52;13.60;99.90
11934;DHT22;6026;48.784;9.198;2022-07-01T03:58:17;13.60;99.90
11934;DHT22;6026;48.784;9.198;2022-07-01T04:00:43;13.60;99.90
11934;DHT22;6026;48.784;9.198;2022-07-01T04:03:09;13.60;99.90
11934;DHT22;6026;48.784;9.198;2022-07-01T04:05:36;13.60;99.90
11934;DHT22;6026;48.784;9.198;2022-07-01T04:08:03;13.60;99.90
11934;DHT22;6026;48.784;9.198;2022-07-01T04:10:33;13.50;99.90
11934;DHT22;6026;48.784;9.198;2022-07-01T04:13:03;13.50;99.90
11934;DHT22;6026;48.784;9.198;2022-07-01T04:15:29;13.40;99.90
11934;DHT22;6026;48.784;9.198;2022-07-01T04:17:55;13.40;99.90
11934;DHT22;6026;48.784;9.198;2022-07-01T04:20:21;13.30;99.90
11934;DHT22;6026;48.784;9.198;2022-07-01T04:22:46;13.40;99.90
11934;DHT22;6026;48.784;9.198;2022-07-01T04:25:12;13.30;99.90
11934;DHT22;6026;48.784;9.198;2022-07-01T04:27:38;13.30;99.90
11934;DHT22;6026;48.784;9.198;2022-07-01T04:30:04;13.40;99.90
11934;DHT22;6026;48.784;9.198;2022-07-01T04:32:30;13.50;99.90
11934;DHT22;6026;48.784;9.198;2022-07-01T04:34:56;13.40;99.90
11934;DHT22;6026;48.784;9.198;2022-07-01T04:37:22;13.30;99.90
11934;DHT22;6026;48.784;9.198;2022-07-01T04:39:48;13.40;99.90
11934;DHT22;6026;48.784;9.198;2022-07-01T04:42:13;13.50;99.90
11934;DHT22;6026;48.784;9.198;2022-07-01T04:44:40;13.40;99.90
11934;DHT22;6026;48.784;9.198;2022-07-01T04:47:06;13.50;99.90
11934;DHT22;6026;48.784;9.198;2022-07-01T04:49:32;13.40;99.90
11934;DHT22;6026;48.784;9.198;2022-07-01T04:51:58;13.40;99.90
11934;DHT22;6026;48.784;9.198;2022-07-01T04:54:24;13.40;99.90
11934;DHT22;6026;48.784;9.198;2022-07-01T04:56:51;13.40;99.90
11934;DHT22;6026;48.784;9.198;2022-07-01T04:59:18;13.30;99.90
11934;DHT22;6026;48.784;9.198;2022-07-01T05:01:45;13.30;99.90
11934;DHT22;6026;48.784;9.198;2022-07-01T05:04:11;13.40;99.90
11934;DHT22;6026;48.784;9.198;2022-07-01T05:06:37;13.40;99.90
11934;DHT22;6026;48.784;9.198;2022-07-01T05:09:03;13.40;99.90
11934;DHT22;6026;48.784;9.198;2022-07-01T05:11:30;13.40;99.90
11934;DHT22;6026;48.784;9.198;2022-07-01T05:13:55;13.40;99.90
11934;DHT22;6026;48.784;9.198;2022-07-01T05:16:21;13.40;99.90
11934;DHT22;6026;48.784;9.198;2022-07-01T05:18:47;13.40;99.90
11934;DHT22;6026;48.784;9.198;2022-07-01T05:21:31;13.40;99.90
11934;DHT22;6026;48.784;9.198;2022-07-01T05:24:15;13.40;99.90
11934;DHT22;6026;48.784;9.198;2022-07-01T05:26:41;13.40;99.90
11934;DHT22;6026;48.784;9.198;2022-07-01T05:29:07;13.30;99.90
11934;DHT22;6026;48.784;9.198;2022-07-01T05:31:32;13.30;99.90
11934;DHT22;6026;48.784;9.198;2022-07-01T05:33:58;13.20;99.90
11934;DHT22;6026;48.784;9.198;2022-07-01T05:36:24;13.30;99.90
11934;DHT22;6026;48.784;9.198;2022-07-01T05:38:49;13.30;99.90
11934;DHT22;6026;48.784;9.198;2022-07-01T05:41:15;13.30;99.90
11934;DHT22;6026;48.784;9.198;2022-07-01T05:43:41;13.30;99.90
11934;DHT22;6026;48.784;9.198;2022-07-01T05:46:07;13.40;99.90
11934;DHT22;6026;48.784;9.198;2022-07-01T05:48:33;13.30;99.90
11934;DHT22;6026;48.784;9.198;2022-07-01T05:50:58;13.40;99.90
11934;DHT22;6026;48.784;9.198;2022-07-01T05:53:24;13.40;99.90
11934;DHT22;6026;48.784;9.198;2022-07-01T05:55:50;13.40;99.90
11934;DHT22;6026;48.784;9.198;2022-07-01T05:58:16;13.50;99.90
11934;DHT22;6026;48.784;9.198;2022-07-01T06:00:42;13.50;99.90
11934;DHT22;6026;48.784;9.198;2022-07-01T06:03:12;13.50;99.90
11934;DHT22;6026;48.784;9.198;2022-07-01T06:05:39;13.60;99.90
11934;DHT22;6026;48.784;9.198;2022-07-01T06:08:05;13.60;99.90
11934;DHT22;6026;48.784;9.198;2022-07-01T06:10:31;13.60;99.90
11934;DHT22;6026;48.784;9.198;2022-07-01T06:12:57;13.60;99.90
11934;DHT22;6026;48.784;9.198;2022-07-01T06:15:23;13.60;99.90
11934;DHT22;6026;48.784;9.198;2022-07-01T06:17:48;13.60;99.90
11934;DHT22;6026;48.784;9.198;2022-07-01T06:20:15;13.50;99.90
11934;DHT22;6026;48.784;9.198;2022-07-01T06:22:40;13.50;99.90
11934;DHT22;6026;48.784;9.198;2022-07-01T06:25:07;13.50;99.90
11934;DHT22;6026;48.784;9.198;2022-07-01T06:27:40;13.50;99.90
11934;DHT22;6026;48.784;9.198;2022-07-01T06:30:07;13.60;99.90
11934;DHT22;6026;48.784;9.198;2022-07-01T06:32:33;13.60;99.90
11934;DHT22;6026;48.784;9.198;2022-07-01T06:34:59;13.60;99.90
11934;DHT22;6026;48.784;9.198;2022-07-01T06:37:24;13.60;99.90
11934;DHT22;6026;48.784;9.198;2022-07-01T06:39:50;13.60;99.90
11934;DHT22;6026;48.784;9.198;2022-07-01T06:42:16;13.70;99.90
11934;DHT22;6026;48.784;9.198;2022-07-01T06:44:42;13.70;99.90
11934;DHT22;6026;48.784;9.198;2022-07-01T06:47:07;13.70;99.90
11934;DHT22;6026;48.784;9.198;2022-07-01T06:49:33;13.70;99.90
11934;DHT22;6026;48.784;9.198;2022-07-01T06:51:58;13.70;99.90
11934;DHT22;6026;48.784;9.198;2022-07-01T06:54:24;13.80;99.90
11934;DHT22;6026;48.784;9.198;2022-07-01T06:56:49;13.80;99.90
11934;DHT22;6026;48.784;9.198;2022-07-01T06:59:15;13.80;99.90
11934;DHT22;6026;48.784;9.198;2022-07-01T07:01:41;13.80;99.90
11934;DHT22;6026;48.784;9.198;2022-07-01T07:04:07;13.80;99.90
11934;DHT22;6026;48.784;9.198;2022-07-01T07:06:33;13.90;99.90
11934;DHT22;6026;48.784;9.198;2022-07-01T07:08:58;13.90;99.90
11934;DHT22;6026;48.784;9.198;2022-07-01T07:11:24;13.80;99.90
11934;DHT22;6026;48.784;9.198;2022-07-01T07:13:50;13.90;99.90
11934;DHT22;6026;48.784;9.198;2022-07-01T07:16:16;13.80;99.90
11934;DHT22;6026;48.784;9.198;2022-07-01T07:18:49;13.80;99.90
11934;DHT22;6026;48.784;9.198;2022-07-01T07:21:14;13.90;99.90
11934;DHT22;6026;48.784;9.198;2022-07-01T07:23:40;13.80;99.90
11934;DHT22;6026;48.784;9.198;2022-07-01T07:26:07;13.90;99.90
11934;DHT22;6026;48.784;9.198;2022-07-01T07:28:32;13.90;99.90
11934;DHT22;6026;48.784;9.198;2022-07-01T07:30:58;13.90;99.90
11934;DHT22;6026;48.784;9.198;2022-07-01T07:33:24;14.00;99.90
11934;DHT22;6026;48.784;9.198;2022-07-01T07:35:49;14.00;99.90
11934;DHT22;6026;48.784;9.198;2022-07-01T07:38:15;14.00;99.90
11934;DHT22;6026;48.784;9.198;2022-07-01T07:40:41;14.00;99.90
11934;DHT22;6026;48.784;9.198;2022-07-01T07:43:07;14.00;99.90
11934;DHT22;6026;48.784;9.198;2022-07-01T07:45:33;13.90;99.90
11934;DHT22;6026;48.784;9.198;2022-07-01T07:47:59;14.00;99.90
11934;DHT22;6026;48.784;9.198;2022-07-01T07:50:26;14.00;99.90
11934;DHT22;6026;48.784;9.198;2022-07-01T07:52:52;14.10;99.90
11934;DHT22;6026;48.784;9.198;2022-07-01T07:55:18;14.10;99.90
11934;DHT22;6026;48.784;9.198;2022-07-01T07:57:43;14.10;99.90
11934;DHT22;6026;48.784;9.198;2022-07-01T08:00:11;14.20;99.90
11934;DHT22;6026;48.784;9.198;2022-07-01T08:02:41;14.20;99.90
11934;DHT22;6026;48.784;9.198;2022-07-01T08:05:08;14.20;99.90
11934;DHT22;6026;48.784;9.198;2022-07-01T08:07:39;14.20;99.90
11934;DHT22;6026;48.784;9.198;2022-07-01T08:10:07;14.20;99.90
11934;DHT22;6026;48.784;9.198;2022-07-01T08:12:33;14.20;99.90
11934;DHT22;6026;48.784;9.198;2022-07-01T08:15:00;14.20;99.90
11934;DHT22;6026;48.784;9.198;2022-07-01T08:17:26;14.20;99.90
11934;DHT22;6026;48.784;9.198;2022-07-01T08:19:52;14.20;99.90
11934;DHT22;6026;48.784;9.198;2022-07-01T08:22:18;14.20;99.90
11934;DHT22;6026;48.784;9.198;2022-07-01T08:24:45;14.30;99.90
11934;DHT22;6026;48.784;9.198;2022-07-01T08:27:10;14.40;99.90
11934;DHT22;6026;48.784;9.198;2022-07-01T08:29:38;14.40;99.90
11934;DHT22;6026;48.784;9.198;2022-07-01T08:32:04;14.40;99.90
11934;DHT22;6026;48.784;9.198;2022-07-01T08:34:30;14.50;99.90
11934;DHT22;6026;48.784;9.198;2022-07-01T08:36:55;14.50;99.90
11934;DHT22;6026;48.784;9.198;2022-07-01T08:39:21;14.50;99.90
11934;DHT22;6026;48.784;9.198;2022-07-01T08:41:47;14.50;99.90
11934;DHT22;6026;48.784;9.198;2022-07-01T08:44:13;14.50;99.90
11934;DHT22;6026;48.784;9.198;2022-07-01T08:46:38;14.40;99.90
11934;DHT22;6026;48.784;9.198;2022-07-01T08:49:04;14.50;99.90
11934;DHT22;6026;48.784;9.198;2022-07-01T08:51:30;14.50;99.90
11934;DHT22;6026;48.784;9.198;2022-07-01T08:53:55;14.40;99.90
11934;DHT22;6026;48.784;9.198;2022-07-01T08:56:21;14.50;99.90
11934;DHT22;6026;48.784;9.198;2022-07-01T08:59:08;14.40;99.90
11934;DHT22;6026;48.784;9.198;2022-07-01T09:01:35;14.50;99.90
11934;DHT22;6026;48.784;9.198;2022-07-01T09:04:18;14.40;99.90
11934;DHT22;6026;48.784;9.198;2022-07-01T09:06:45;14.40;99.90
11934;DHT22;6026;48.784;9.198;2022-07-01T09:09:16;14.40;99.90
11934;DHT22;6026;48.784;9.198;2022-07-01T09:11:47;14.40;99.90
11934;DHT22;6026;48.784;9.198;2022-07-01T09:14:20;14.50;99.90
11934;DHT22;6026;48.784;9.198;2022-07-01T09:16:57;14.50;99.90
11934;DHT22;6026;48.784;9.198;2022-07-01T09:19:27;14.50;99.90
11934;DHT22;6026;48.784;9.198;2022-07-01T09:21:58;14.40;99.90
11934;DHT22;6026;48.784;9.198;2022-07-01T09:24:38;14.30;99.90
11934;DHT22;6026;48.784;9.198;2022-07-01T09:27:13;14.30;99.90
11934;DHT22;6026;48.784;9.198;2022-07-01T09:29:51;14.10;99.90
11934;DHT22;6026;48.784;9.198;2022-07-01T09:32:20;14.10;99.90
11934;DHT22;6026;48.784;9.198;2022-07-01T09:34:47;14.10;99.90
11934;DHT22;6026;48.784;9.198;2022-07-01T09:37:15;14.10;99.90
11934;DHT22;6026;48.784;9.198;2022-07-01T09:39:48;14.10;99.90
11934;DHT22;6026;48.784;9.198;2022-07-01T09:42:14;13.90;99.90
11934;DHT22;6026;48.784;9.198;2022-07-01T09:44:55;13.90;99.90
11934;DHT22;6026;48.784;9.198;2022-07-01T09:47:28;13.80;99.90
11934;DHT22;6026;48.784;9.198;2022-07-01T09:49:54;13.80;99.90
11934;DHT22;6026;48.784;9.198;2022-07-01T09:52:21;13.80;99.90
11934;DHT22;6026;48.784;9.198;2022-07-01T09:54:49;13.70;99.90
11934;DHT22;6026;48.784;9.198;2022-07-01T09:57:16;13.70;99.90
11934;DHT22;6026;48.784;9.198;2022-07-01T09:59:41;13.70;99.90
11934;DHT22;6026;48.784;9.198;2022-07-01T10:02:08;13.70;99.90
11934;DHT22;6026;48.784;9.198;2022-07-01T10:04:46;13.70;99.90
11934;DHT22;6026;48.784;9.198;2022-07-01T10:07:45;13.70;99.90
11934;DHT22;6026;48.784;9.198;2022-07-01T10:13:17;13.90;99.90
11934;DHT22;6026;48.784;9.198;2022-07-01T10:15:44;14.10;99.90
11934;DHT22;6026;48.784;9.198;2022-07-01T10:18:21;14.20;99.90
11934;DHT22;6026;48.784;9.198;2022-07-01T10:20:48;14.30;99.90
11934;DHT22;6026;48.784;9.198;2022-07-01T10:23:14;14.40;99.90
11934;DHT22;6026;48.784;9.198;2022-07-01T10:25:45;14.40;99.90
11934;DHT22;6026;48.784;9.198;2022-07-01T10:28:21;14.50;99.90
11934;DHT22;6026;48.784;9.198;2022-07-01T10:44:15;15.40;99.90
11934;DHT22;6026;48.784;9.198;2022-07-01T10:46:48;15.60;99.90
11934;DHT22;6026;48.784;9.198;2022-07-01T10:52:12;15.80;99.90
11934;DHT22;6026;48.784;9.198;2022-07-01T10:59:52;16.30;99.90
11934;DHT22;6026;48.784;9.198;2022-07-01T11:02:19;16.50;99.90
11934;DHT22;6026;48.784;9.198;2022-07-01T11:04:46;16.60;99.90
11934;DHT22;6026;48.784;9.198;2022-07-01T11:07:12;16.70;99.90
11934;DHT22;6026;48.784;9.198;2022-07-01T11:09:38;16.70;99.90
11934;DHT22;6026;48.784;9.198;2022-07-01T11:12:05;16.70;99.90
11934;DHT22;6026;48.784;9.198;2022-07-01T11:14:39;16.70;99.90
11934;DHT22;6026;48.784;9.198;2022-07-01T11:17:05;16.70;99.90
11934;DHT22;6026;48.784;9.198;2022-07-01T11:19:31;16.60;99.90
11934;DHT22;6026;48.784;9.198;2022-07-01T11:21:57;16.40;99.90
11934;DHT22;6026;48.784;9.198;2022-07-01T11:24:23;16.30;99.90
11934;DHT22;6026;48.784;9.198;2022-07-01T11:26:49;16.40;99.90
11934;DHT22;6026;48.784;9.198;2022-07-01T11:29:24;16.50;99.90
11934;DHT22;6026;48.784;9.198;2022-07-01T11:31:50;16.50;99.90
11934;DHT22;6026;48.784;9.198;2022-07-01T11:34:16;16.50;99.90
11934;DHT22;6026;48.784;9.198;2022-07-01T11:36:44;16.30;99.90
11934;DHT22;6026;48.784;9.198;2022-07-01T11:39:29;16.10;99.90
11934;DHT22;6026;48.784;9.198;2022-07-01T11:42:00;15.80;99.90
11934;DHT22;6026;48.784;9.198;2022-07-01T11:44:36;15.90;99.90
11934;DHT22;6026;48.784;9.198;2022-07-01T11:47:06;16.00;99.90
11934;DHT22;6026;48.784;9.198;2022-07-01T11:49:32;16.10;99.90
11934;DHT22;6026;48.784;9.198;2022-07-01T11:52:03;16.20;99.90
11934;DHT22;6026;48.784;9.198;2022-07-01T11:54:29;16.40;99.90
11934;DHT22;6026;48.784;9.198;2022-07-01T11:59:35;16.70;99.90
11934;DHT22;6026;48.784;9.198;2022-07-01T12:02:04;16.90;99.90
11934;DHT22;6026;48.784;9.198;2022-07-01T12:04:30;17.10;99.90
11934;DHT22;6026;48.784;9.198;2022-07-01T12:06:56;17.20;99.90
11934;DHT22;6026;48.784;9.198;2022-07-01T12:09:23;17.50;99.90
11934;DHT22;6026;48.784;9.198;2022-07-01T12:11:51;17.70;99.90
11934;DHT22;6026;48.784;9.198;2022-07-01T12:14:24;18.00;99.90
11934;DHT22;6026;48.784;9.198;2022-07-01T12:16:55;18.20;99.90
11934;DHT22;6026;48.784;9.198;2022-07-01T12:21:59;18.10;99.90
11934;DHT22;6026;48.784;9.198;2022-07-01T12:24:25;17.70;99.90
11934;DHT22;6026;48.784;9.198;2022-07-01T12:29:24;18.30;99.90
11934;DHT22;6026;48.784;9.198;2022-07-01T12:32:04;18.80;99.90
11934;DHT22;6026;48.784;9.198;2022-07-01T12:34:41;18.90;99.90
11934;DHT22;6026;48.784;9.198;2022-07-01T12:37:09;18.80;99.90
11934;DHT22;6026;48.784;9.198;2022-07-01T12:42:29;18.00;99.90
11934;DHT22;6026;48.784;9.198;2022-07-01T12:44:58;18.10;99.90
11934;DHT22;6026;48.784;9.198;2022-07-01T12:50:09;18.20;99.90
11934;DHT22;6026;48.784;9.198;2022-07-01T12:52:34;18.00;99.90
11934;DHT22;6026;48.784;9.198;2022-07-01T12:55:00;17.80;99.90
11934;DHT22;6026;48.784;9.198;2022-07-01T12:57:32;17.70;99.90
11934;DHT22;6026;48.784;9.198;2022-07-01T12:59:58;17.70;99.90
11934;DHT22;6026;48.784;9.198;2022-07-01T13:02:24;17.70;99.90
11934;DHT22;6026;48.784;9.198;2022-07-01T13:04:50;17.60;99.90
11934;DHT22;6026;48.784;9.198;2022-07-01T13:07:15;17.30;99.90
11934;DHT22;6026;48.784;9.198;2022-07-01T13:09:41;17.30;99.90
11934;DHT22;6026;48.784;9.198;2022-07-01T13:12:07;17.30;99.90
11934;DHT22;6026;48.784;9.198;2022-07-01T13:14:33;17.10;99.90
11934;DHT22;6026;48.784;9.198;2022-07-01T13:16:58;17.20;99.90
11934;DHT22;6026;48.784;9.198;2022-07-01T13:19:24;17.20;99.90
11934;DHT22;6026;48.784;9.198;2022-07-01T13:21:49;17.20;99.90
11934;DHT22;6026;48.784;9.198;2022-07-01T13:24:15;17.30;99.90
11934;DHT22;6026;48.784;9.198;2022-07-01T13:26:41;17.40;99.90
11934;DHT22;6026;48.784;9.198;2022-07-01T13:29:06;17.60;99.90
11934;DHT22;6026;48.784;9.198;2022-07-01T13:31:32;17.70;99.90
11934;DHT22;6026;48.784;9.198;2022-07-01T13:33:57;18.00;99.90
11934;DHT22;6026;48.784;9.198;2022-07-01T13:36:23;18.00;99.90
11934;DHT22;6026;48.784;9.198;2022-07-01T13:38:49;18.10;99.90
11934;DHT22;6026;48.784;9.198;2022-07-01T13:41:16;18.00;99.90
11934;DHT22;6026;48.784;9.198;2022-07-01T13:43:41;18.20;99.90
11934;DHT22;6026;48.784;9.198;2022-07-01T13:46:07;18.60;99.90
11934;DHT22;6026;48.784;9.198;2022-07-01T13:48:33;18.70;99.90
11934;DHT22;6026;48.784;9.198;2022-07-01T13:50:58;18.60;99.90
11934;DHT22;6026;48.784;9.198;2022-07-01T13:53:24;18.80;99.90
11934;DHT22;6026;48.784;9.198;2022-07-01T13:55:49;18.80;99.90
11934;DHT22;6026;48.784;9.198;2022-07-01T13:58:15;18.80;99.90
11934;DHT22;6026;48.784;9.198;2022-07-01T14:00:42;18.80;99.90
11934;DHT22;6026;48.784;9.198;2022-07-01T14:03:08;18.90;99.90
11934;DHT22;6026;48.784;9.198;2022-07-01T14:05:36;18.90;99.90
11934;DHT22;6026;48.784;9.198;2022-07-01T14:08:02;18.80;99.90
11934;DHT22;6026;48.784;9.198;2022-07-01T14:10:27;18.60;99.90
11934;DHT22;6026;48.784;9.198;2022-07-01T14:12:53;18.80;99.90
11934;DHT22;6026;48.784;9.198;2022-07-01T14:15:19;19.00;99.90
11934;DHT22;6026;48.784;9.198;2022-07-01T14:17:45;19.10;99.90
11934;DHT22;6026;48.784;9.198;2022-07-01T14:20:11;19.20;99.90
11934;DHT22;6026;48.784;9.198;2022-07-01T14:22:37;19.20;99.90
11934;DHT22;6026;48.784;9.198;2022-07-01T14:25:03;18.80;99.90
11934;DHT22;6026;48.784;9.198;2022-07-01T14:27:29;19.00;99.90
11934;DHT22;6026;48.784;9.198;2022-07-01T14:29:54;19.00;99.90
11934;DHT22;6026;48.784;9.198;2022-07-01T14:32:20;19.30;99.90
11934;DHT22;6026;48.784;9.198;2022-07-01T14:34:52;19.50;99.90
11934;DHT22;6026;48.784;9.198;2022-07-01T14:37:17;19.70;99.90
11934;DHT22;6026;48.784;9.198;2022-07-01T14:39:43;19.70;99.90
11934;DHT22;6026;48.784;9.198;2022-07-01T14:42:09;19.50;99.90
11934;DHT22;6026;48.784;9.198;2022-07-01T14:44:34;19.40;99.90
11934;DHT22;6026;48.784;9.198;2022-07-01T14:47:00;19.30;99.90
11934;DHT22;6026;48.784;9.198;2022-07-01T14:49:25;19.30;99.90
11934;DHT22;6026;48.784;9.198;2022-07-01T14:51:51;19.50;99.90
11934;DHT22;6026;48.784;9.198;2022-07-01T14:54:17;19.50;99.90
11934;DHT22;6026;48.784;9.198;2022-07-01T14:56:43;19.60;99.90
11934;DHT22;6026;48.784;9.198;2022-07-01T14:59:09;19.50;99.90
11934;DHT22;6026;48.784;9.198;2022-07-01T15:01:34;19.50;99.90
11934;DHT22;6026;48.784;9.198;2022-07-01T15:04:00;19.50;99.90
11934;DHT22;6026;48.784;9.198;2022-07-01T15:06:26;19.40;99.90
11934;DHT22;6026;48.784;9.198;2022-07-01T15:08:52;19.30;99.90
11934;DHT22;6026;48.784;9.198;2022-07-01T15:11:17;19.50;99.90
11934;DHT22;6026;48.784;9.198;2022-07-01T15:13:43;19.30;99.90
11934;DHT22;6026;48.784;9.198;2022-07-01T15:16:09;19.50;99.90
11934;DHT22;6026;48.784;9.198;2022-07-01T15:18:34;19.70;99.90
11934;DHT22;6026;48.784;9.198;2022-07-01T15:21:00;19.70;99.90
11934;DHT22;6026;48.784;9.198;2022-07-01T15:23:27;19.70;99.90
11934;DHT22;6026;48.784;9.198;2022-07-01T15:25:54;19.60;99.90
11934;DHT22;6026;48.784;9.198;2022-07-01T15:28:20;19.40;99.90
11934;DHT22;6026;48.784;9.198;2022-07-01T15:30:46;19.60;99.90
11934;DHT22;6026;48.784;9.198;2022-07-01T15:33:13;19.70;99.90
11934;DHT22;6026;48.784;9.198;2022-07-01T15:35:39;19.70;99.90
11934;DHT22;6026;48.784;9.198;2022-07-01T15:38:04;19.60;99.90
11934;DHT22;6026;48.784;9.198;2022-07-01T15:40:31;19.60;99.90
11934;DHT22;6026;48.784;9.198;2022-07-01T15:42:57;19.60;99.90
11934;DHT22;6026;48.784;9.198;2022-07-01T15:45:24;19.60;99.90
11934;DHT22;6026;48.784;9.198;2022-07-01T15:47:50;19.60;99.90
11934;DHT22;6026;48.784;9.198;2022-07-01T15:50:32;19.60;99.90
11934;DHT22;6026;48.784;9.198;2022-07-01T15:52:58;19.50;99.90
11934;DHT22;6026;48.784;9.198;2022-07-01T15:55:24;19.50;99.90
11934;DHT22;6026;48.784;9.198;2022-07-01T15:57:49;19.60;99.90
11934;DHT22;6026;48.784;9.198;2022-07-01T16:00:15;19.60;99.90
11934;DHT22;6026;48.784;9.198;2022-07-01T16:02:41;19.50;99.90
11934;DHT22;6026;48.784;9.198;2022-07-01T16:05:08;19.60;99.90
11934;DHT22;6026;48.784;9.198;2022-07-01T16:07:36;19.40;99.90
11934;DHT22;6026;48.784;9.198;2022-07-01T16:12:53;19.30;99.90
11934;DHT22;6026;48.784;9.198;2022-07-01T16:15:21;19.50;99.90
11934;DHT22;6026;48.784;9.198;2022-07-01T16:17:48;19.50;99.90
11934;DHT22;6026;48.784;9.198;2022-07-01T16:20:14;19.50;99.90
11934;DHT22;6026;48.784;9.198;2022-07-01T16:22:41;19.60;99.90
11934;DHT22;6026;48.784;9.198;2022-07-01T16:25:08;19.50;99.90